Kirkville, IA

22:38 CDT le 25 octobre 2014 (GMT -0500)
Ottumwa Industrial | Change Station
CLOSE
Current Station
Aéroport
Location: Ottumwa,
Altitude: 843 ft
Stations météo à proximité

Alt. 843 ft 41.11 °N, 92.45 °W | Updated 45 minutes ago

Ciel dégagé
Ciel dégagé
55 ° F
Paraît 55 ° F
N
5
Vent Variable Vent de NNO

Aujourd'hui
Haut(e) -- | Bas -- ° F
--% Risque de précip.
Hier
Haut(e) -- | Bas -- ° F
Precip. -- pouce
7:32 AM 6:14 PM
Lune montante, 5% visible
Pression 30.06 pouce
Visibilité 10.0 Miles terrestres
Nuages Ciel dégagé
Point de rosée 37 ° F
Humidité 51%
Précipitations 0.00 pouce
Profondeur de la couche neigeuse Non disponible.
UV 0 sur 12
Pollen 1.90 sur 12
Qualité de l'air Non disponible.
Flu Activity Sporadic
METAR KOTM 260253Z AUTO 34004KT 10SM CLR 13/03 A3006 RMK AO2 SLP177 T01280028 51004

More Conditions Fewer Conditions

Pression 30.06 pouce
Visibilité 10.0 Miles terrestres
Nuages Ciel dégagé
Point de rosée 37 ° F
Humidité 51%
Précipitations 0.00 pouce
Profondeur de la couche neigeuse Non disponible.
UV 0 sur 12
Pollen 1.90 sur 12
Qualité de l'air Non disponible.
Flu Activity Sporadic
METAR KOTM 260253Z AUTO 34004KT 10SM CLR 13/03 A3006 RMK AO2 SLP177 T01280028 51004

More Conditions Fewer Conditions

10-Day Weather Forecast

Almanac

Astronomie

Oct. 25, 2014 Lever Coucher
Temps réel 07:32 CDT 18:14 CDT
Crépuscule civil 07:04 CDT 18:42 CDT
Crépuscule nautique 06:32 CDT 19:14 CDT
Crépuscule astronomique 06:00 CDT 19:46 CDT
Lune 09:12 CDT (10/25) 19:37 CDT (10/25)
Durée de lumière visible 11h 38m
Longueur du jour
10h 41m
Tomorrow will be 2m 31s shorter.
Lune montante, 5% of the Moon is Illuminated
Aujourd'hui
Lune montante
Oct 30
Premier quartier
Nov 6
Pleine lune
Nov 14
Dernier quartier
Nov 22
Nouveau

Extrêmes aujourd'hui

State Highs State Lows

Community

WunderPhotos

Upload Photos

1,765,095 Photos téléchargées !

Nearby

Épaisseur de neige

Station Depth Altitude
Pas de nouvelles chutes de neige

Activité sismique

Ville Distance Mag. Time & Date
No recent earthquake activity has been reported nearby.
Minimum magnitude displayed is 2.5.

Températures des eaux côtières

Lieu Température
Aucun rapport de station

Stations météo à proximité